Dades meteomassalio
Diari Summary for Marc 21, 2017 Units:  Metric    English   Both
« Previous Day
Next Day »
Diari Semanal Mensual Anual Personalitzat
  Maxima: Minima: Mijana:
Temperatura: -17.8 °C -13.6 °C -10.8 °C
Rosada: -17.8 °C -15.4 °C -14.3 °C
Humitat: Humidity % 52 % 67 %
Velocitat del vent: 0 km/h 0 km/h 18 km/h
Racha vent: 0 km/h - -
Vent:- - WNW
Pressio: 0 hPa 34303.6 hPa -
Pluja: 0 mm    
Historical Graphs
 
 
Tabular Data for Marc 21, 2017
Time Temperature Dew Point Pressure Wind Wind Speed Wind Gust Humidity Rainfall Rate (Hourly) solar Conditions
-17.8 °C -17.8 °C 0 hPa Calm     Humidity % 0 mm SolarRadiationWatts/m^2 W/m2 Conditions
00:01 -12.2 °C -13.9 °C 34337.4 hPa Calm     81 % 0 mm 0.0 W/m2 CLR
00:06 -12.2 °C -13.9 °C 34337.4 hPa Calm     81 % 0 mm 0.0 W/m2 CLR
00:11 -12.2 °C -13.9 °C 34337.4 hPa Calm     81 % 0 mm 0.0 W/m2 CLR
00:12 -12.2 °C -13.9 °C 34337.4 hPa Calm     81 % 0 mm 0.0 W/m2 CLR
00:17 -12.3 °C -14 °C 34337.4 hPa Calm     81 % 0 mm 0.0 W/m2 CLR
00:22 -12.3 °C -14 °C 34337.4 hPa Calm     82 % 0 mm 0.0 W/m2 CLR
00:27 -12.4 °C -14.1 °C 34337.4 hPa Calm     82 % 0 mm 0.0 W/m2 CLR
00:32 -12.4 °C -13.9 °C 34337.4 hPa Calm     83 % 0 mm 0.0 W/m2 CLR
00:37 -12.4 °C -13.9 °C 34337.4 hPa Calm     83 % 0 mm 0.0 W/m2 CLR
00:42 -12.4 °C -13.9 °C 34337.4 hPa Calm     83 % 0 mm 0.0 W/m2 CLR
00:47 -12.3 °C -14 °C 34337.4 hPa Calm     82 % 0 mm 0.0 W/m2 CLR
00:52 -12.3 °C -14 °C 34337.4 hPa Calm     82 % 0 mm 0.0 W/m2 CLR
00:57 -12.4 °C -14 °C 34347.6 hPa Calm     82 % 0 mm 0.0 W/m2 CLR
01:02 -12.4 °C -14.1 °C 34347.6 hPa Calm     82 % 0 mm 0.0 W/m2 CLR
01:07 -12.5 °C -14 °C 34337.4 hPa Calm     83 % 0 mm 0.0 W/m2 CLR
01:12 -12.5 °C -14 °C 34337.4 hPa Calm     83 % 0 mm 0.0 W/m2 CLR
01:17 -12.6 °C -14.1 °C 34347.6 hPa Calm     83 % 0 mm 0.0 W/m2 CLR
01:18 -12.6 °C -14.1 °C 34347.6 hPa Calm     83 % 0 mm 0.0 W/m2 CLR
01:23 -12.6 °C -14.1 °C 34337.4 hPa Calm     83 % 0 mm 0.0 W/m2 CLR
01:28 -12.6 °C -14.1 °C 34347.6 hPa Calm     83 % 0 mm 0.0 W/m2 CLR
01:33 -12.6 °C -14.1 °C 34347.6 hPa Calm     83 % 0 mm 0.0 W/m2 CLR
01:38 -12.7 °C -14.2 °C 34347.6 hPa Calm     83 % 0 mm 0.0 W/m2 CLR
01:43 -12.7 °C -14.1 °C 34347.6 hPa Calm     84 % 0 mm 0.0 W/m2 CLR
01:48 -12.7 °C -14.1 °C 34347.6 hPa Calm     84 % 0 mm 0.0 W/m2 CLR
01:53 -12.6 °C -14.1 °C 34347.6 hPa Calm     84 % 0 mm 0.0 W/m2 CLR
01:58 -12.6 °C -14.1 °C 34347.6 hPa Calm     84 % 0 mm 0.0 W/m2 CLR
02:03 -12.6 °C -14 °C 34347.6 hPa Calm     84 % 0 mm 0.0 W/m2 CLR
02:08 -12.6 °C -14 °C 34347.6 hPa Calm     84 % 0 mm 0.0 W/m2 CLR
02:13 -12.6 °C -14.1 °C 34361.1 hPa Calm     83 % 0 mm 0.0 W/m2 CLR
02:18 -12.7 °C -14.1 °C 34361.1 hPa Calm     84 % 0 mm 0.0 W/m2 CLR
02:23 -12.7 °C -14.1 °C 34361.1 hPa Calm     84 % 0 mm 0.0 W/m2 CLR
02:28 -12.7 °C -14.1 °C 34361.1 hPa Calm     85 % 0 mm 0.0 W/m2 CLR
02:33 -12.8 °C -14.2 °C 34361.1 hPa Calm     84 % 0 mm 0.0 W/m2 CLR
02:38 -12.8 °C -14.2 °C 34361.1 hPa Calm     84 % 0 mm 0.0 W/m2 CLR
02:43 -12.8 °C -14.1 °C 34361.1 hPa Calm     85 % 0 mm 0.0 W/m2 CLR
02:48 -12.6 °C -13.8 °C 34361.1 hPa Calm     86 % 0 mm 0.0 W/m2 CLR
02:53 -12.4 °C -13.8 °C 34361.1 hPa Calm     84 % 0 mm 0.0 W/m2 CLR
02:58 -12.3 °C -13.8 °C 34361.1 hPa Calm     83 % 0 mm 0.0 W/m2 CLR
03:03 -12.1 °C -13.8 °C 34361.1 hPa Calm     81 % 0 mm 0.0 W/m2 CLR
03:08 -11.9 °C -13.9 °C 34371.3 hPa Calm     79 % 0 mm 0.0 W/m2 CLR
03:13 -11.8 °C -14 °C 34371.3 hPa Calm     76 % 0 mm 0.0 W/m2 CLR
03:18 -11.8 °C -14.2 °C 34371.3 hPa Calm     75 % 0 mm 0.0 W/m2 CLR
03:23 -11.7 °C -14.2 °C 34371.3 hPa WSW 6 km/h   74 % 0 mm 0.0 W/m2 CLR
03:28 -11.7 °C -14.3 °C 34361.1 hPa West 9 km/h 9 km/h 73 % 0 mm 0.0 W/m2 CLR
03:33 -11.6 °C -14.3 °C 34371.3 hPa Calm     72 % 0 mm 0.0 W/m2 CLR
03:38 -11.7 °C -14.3 °C 34361.1 hPa WSW 3.1 km/h   73 % 0 mm 0.0 W/m2 CLR
03:43 -11.8 °C -14.3 °C 34361.1 hPa Calm     74 % 0 mm 0.0 W/m2 CLR
03:48 -12 °C -14.3 °C 34361.1 hPa SW 3.1 km/h 3.1 km/h 75 % 0 mm 0.0 W/m2 CLR
03:53 -12.1 °C -14.5 °C 34361.1 hPa WNW 26.9 km/h 26.9 km/h 74 % 0 mm 0.0 W/m2 CLR
03:58 -11.8 °C -14.7 °C 34371.3 hPa WSW 23.8 km/h 23.8 km/h 71 % 0 mm 0.0 W/m2 CLR
04:03 -11.8 °C -14.7 °C 34371.3 hPa WNW 20.8 km/h 20.8 km/h 70 % 0 mm 0.0 W/m2 CLR
04:08 -11.8 °C -14.7 °C 34371.3 hPa WNW 26.9 km/h 26.9 km/h 70 % 0 mm 0.0 W/m2 CLR
04:13 -11.8 °C -14.8 °C 34371.3 hPa WNW 15.6 km/h 15.6 km/h 70 % 0 mm 0.0 W/m2 CLR
04:18 -12 °C -14.8 °C 34371.3 hPa WNW 15 km/h 15 km/h 71 % 0 mm 0.0 W/m2 CLR
04:23 -12.1 °C -14.9 °C 34371.3 hPa West 9 km/h 9 km/h 71 % 0 mm 0.0 W/m2 CLR
04:28 -12.1 °C -14.9 °C 34371.3 hPa West 23.3 km/h 23.3 km/h 71 % 0 mm 0.0 W/m2 CLR
04:33 -12.1 °C -14.8 °C 34371.3 hPa WSW 11.9 km/h 11.9 km/h 71 % 0 mm 0.0 W/m2 CLR
04:38 -12.1 °C -14.8 °C 34371.3 hPa West 20.9 km/h 20.9 km/h 71 % 0 mm 0.0 W/m2 CLR
04:43 -12.1 °C -14.8 °C 34384.8 hPa West 32.8 km/h 32.8 km/h 71 % 0 mm 0.0 W/m2 CLR
04:48 -12.1 °C -14.9 °C 34384.8 hPa WNW 15 km/h 15 km/h 71 % 0 mm 0.0 W/m2 CLR
04:53 -12.2 °C -14.9 °C 34384.8 hPa West 15 km/h 15 km/h 71 % 0 mm 0.0 W/m2 CLR
04:58 -12.2 °C -15 °C 34384.8 hPa West 9 km/h 9 km/h 71 % 0 mm 0.0 W/m2 CLR
05:03 -12.3 °C -15 °C 34384.8 hPa West 15.6 km/h 15.6 km/h 72 % 0 mm 0.0 W/m2 CLR
05:08 -12.3 °C -15 °C 34384.8 hPa West 23.8 km/h 23.8 km/h 72 % 0 mm 0.0 W/m2 CLR
05:13 -12.3 °C -15 °C 34371.3 hPa West 29.8 km/h 29.8 km/h 72 % 0 mm 0.0 W/m2 CLR
05:18 -12.4 °C -14.9 °C 34371.3 hPa WSW 26.9 km/h 26.9 km/h 73 % 0 mm 0.0 W/m2 CLR
05:23 -12.4 °C -15.1 °C 34384.8 hPa West 20.9 km/h 20.9 km/h 73 % 0 mm 0.0 W/m2 CLR
05:28 -12.6 °C -14.9 °C 34384.8 hPa WSW 9 km/h 9 km/h 74 % 0 mm 0.0 W/m2 CLR
05:33 -12.6 °C -15.1 °C 34384.8 hPa WSW 3.1 km/h   74 % 0 mm 0.0 W/m2 CLR
05:38 -12.6 °C -15.1 °C 34384.8 hPa WSW 2.6 km/h 2.6 km/h 74 % 0 mm 0.0 W/m2 CLR
05:43 -12.7 °C -15.1 °C 34384.8 hPa Calm     75 % 0 mm 0.0 W/m2 CLR
05:48 -12.9 °C -15.1 °C 34384.8 hPa Calm     76 % 0 mm 0.0 W/m2 CLR
05:53 -12.9 °C -15.2 °C 34384.8 hPa Calm     76 % 0 mm 0.0 W/m2 CLR
05:58 -13 °C -15.1 °C 34384.8 hPa Calm     77 % 0 mm 0.0 W/m2 CLR
05:59 -13 °C -15.1 °C 34384.8 hPa Calm     77 % 0 mm 0.0 W/m2 CLR
06:04 -13.1 °C -15.1 °C 34384.8 hPa SSW 9 km/h 9 km/h 78 % 0 mm 0.0 W/m2 CLR
06:09 -13.1 °C -15.1 °C 34384.8 hPa SW 15 km/h 15 km/h 78 % 0 mm 0.0 W/m2 CLR
06:14 -13.1 °C -15.1 °C 34384.8 hPa SW 17.9 km/h 17.9 km/h 78 % 0 mm 0.0 W/m2 CLR
06:19 -13 °C -15.1 °C 34384.8 hPa SW 12.9 km/h 12.9 km/h 77 % 0 mm 0.0 W/m2 CLR
06:24 -13 °C -15.1 °C 34384.8 hPa SW 9 km/h 9 km/h 77 % 0 mm 0.0 W/m2 CLR
06:34 -13.1 °C -15.1 °C 34384.8 hPa SW 11.9 km/h 11.9 km/h 78 % 0 mm 0.0 W/m2 CLR
06:39 -13.2 °C -15.1 °C 34384.8 hPa Calm     79 % 0 mm 0.0 W/m2 CLR
06:44 -13.3 °C -15.2 °C 34384.8 hPa SSW 9 km/h 9 km/h 79 % 0 mm 0.0 W/m2 CLR
06:49 -13.3 °C -15.2 °C 34384.8 hPa West 9 km/h 9 km/h 79 % 0 mm 0.0 W/m2 CLR
06:54 -13.3 °C -15.1 °C 34395 hPa WSW 9 km/h 9 km/h 80 % 0 mm 0.0 W/m2 CLR
06:59 -13.3 °C -15.1 °C 34395 hPa Calm     80 % 0 mm 0.0 W/m2 CLR
07:04 -13.3 °C -15.2 °C 34395 hPa Calm     79 % 0 mm 7.0 W/m2 OVC
07:09 -13.3 °C -15.2 °C 34395 hPa Calm     79 % 0 mm 11.0 W/m2 BKN
07:14 -13.5 °C -15.4 °C 34395 hPa Calm     79 % 0 mm 16.0 W/m2 BKN
07:19 -13.6 °C -15.3 °C 34395 hPa Calm     81 % 0 mm 19.0 W/m2 BKN
07:24 -13.6 °C -15.2 °C 34395 hPa Calm     82 % 0 mm 25.0 W/m2 BKN
07:29 -13.5 °C -15.1 °C 34395 hPa Calm     82 % 0 mm 30.0 W/m2 BKN
07:34 -13.5 °C -15.2 °C 34395 hPa Calm     81 % 0 mm 33.0 W/m2 BKN
07:39 -13.4 °C -15.1 °C 34395 hPa Calm     81 % 0 mm 40.0 W/m2 BKN
07:44 -13.2 °C -14.9 °C 34395 hPa Calm     81 % 0 mm 62.0 W/m2 SCT
07:49 -13.1 °C -14.9 °C 34395 hPa Calm     80 % 0 mm 74.0 W/m2 FEW
07:54 -13.1 °C -14.9 °C 34395 hPa Calm     80 % 0 mm 77.0 W/m2 FEW
07:59 -13 °C -14.8 °C 34395 hPa Calm     80 % 0 mm 97.0 W/m2 CLR
08:04 -12.9 °C -14.7 °C 34395 hPa Calm     80 % 0 mm 93.0 W/m2 CLR
08:09 -12.8 °C -14.7 °C 34395 hPa Calm     79 % 0 mm 102.0 W/m2 CLR
08:14 -12.7 °C -14.6 °C 34405.1 hPa Calm     79 % 0 mm 125.0 W/m2 CLR
08:19 -12.6 °C -14.6 °C 34395 hPa Calm     78 % 0 mm 142.0 W/m2 CLR
08:24 -12.6 °C -14.7 °C 34405.1 hPa Calm     77 % 0 mm 162.0 W/m2 CLR
08:34 -12.3 °C -14.3 °C 34405.1 hPa Calm     78 % 0 mm 206.0 W/m2 CLR
08:39 -12.1 °C -14.5 °C 34405.1 hPa WSW 9 km/h 9 km/h 75 % 0 mm 229.0 W/m2 CLR
08:44 -12 °C -14.6 °C 34405.1 hPa WNW 26.9 km/h 26.9 km/h 73 % 0 mm 241.0 W/m2 CLR
08:49 -11.9 °C -14.7 °C 34405.1 hPa West 23.8 km/h 23.8 km/h 71 % 0 mm 265.0 W/m2 CLR
08:54 -11.8 °C -14.6 °C 34405.1 hPa West 20.8 km/h 20.8 km/h 71 % 0 mm 294.0 W/m2 CLR
08:59 -11.7 °C -14.7 °C 34405.1 hPa WNW 29.8 km/h 29.8 km/h 69 % 0 mm 279.0 W/m2 CLR
09:04 -11.7 °C -14.7 °C 34405.1 hPa NW 20.9 km/h 20.9 km/h 69 % 0 mm 327.0 W/m2 CLR
09:09 -11.6 °C -14.6 °C 34405.1 hPa West 31.1 km/h 31.1 km/h 70 % 0 mm 302.0 W/m2 CLR
09:14 -11.6 °C -14.6 °C 34405.1 hPa WNW 35.7 km/h 35.7 km/h 69 % 0 mm 315.0 W/m2 CLR
09:19 -11.6 °C -14.6 °C 34405.1 hPa West 23.8 km/h 23.8 km/h 69 % 0 mm 301.0 W/m2 CLR
09:24 -11.6 °C -14.6 °C 34405.1 hPa NW 29.8 km/h 29.8 km/h 69 % 0 mm 362.0 W/m2 CLR
09:29 -11.4 °C -14.5 °C 34405.1 hPa WNW 17.9 km/h 23.5 km/h 69 % 0 mm 350.0 W/m2 CLR
09:34 -11.4 °C -14.4 °C 34405.1 hPa NNW 20.9 km/h 20.9 km/h 69 % 0 mm 439.0 W/m2 CLR
09:39 -11.3 °C -14.6 °C 34405.1 hPa NW 38.8 km/h 38.8 km/h 67 % 0 mm 452.0 W/m2 CLR
09:44 -11.3 °C -14.5 °C 34405.1 hPa NW 35.7 km/h 35.7 km/h 68 % 0 mm 439.0 W/m2 CLR
09:49 -11.2 °C -14.4 °C 34405.1 hPa WNW 29.8 km/h 29.8 km/h 68 % 0 mm 469.0 W/m2 CLR
09:54 -11.2 °C -14.5 °C 34405.1 hPa WNW 29.8 km/h 29.8 km/h 67 % 0 mm 392.0 W/m2 CLR
09:59 -11.2 °C -14.5 °C 34405.1 hPa WNW 17.9 km/h 22.5 km/h 67 % 0 mm 404.0 W/m2 CLR
10:04 -11.1 °C -14.6 °C 34405.1 hPa NW 31.1 km/h 31.1 km/h 66 % 0 mm 510.0 W/m2 CLR
10:09 -10.9 °C -14.3 °C 34405.1 hPa NW 15 km/h 15 km/h 67 % 0 mm 424.0 W/m2 CLR
10:14 -10.9 °C -14.3 °C 34405.1 hPa NW 31.1 km/h 31.1 km/h 66 % 0 mm 413.0 W/m2 CLR
10:19 -10.9 °C -14.2 °C 34405.1 hPa WNW 12.9 km/h 12.9 km/h 67 % 0 mm 494.0 W/m2 CLR
10:24 -10.8 °C -14.1 °C 34405.1 hPa WNW 29.8 km/h 29.8 km/h 67 % 0 mm 582.0 W/m2 CLR
10:30 -10.7 °C -14.4 °C 34405.1 hPa NNW 12.9 km/h 12.9 km/h 64 % 0 mm 531.0 W/m2 CLR
10:35 -10.6 °C -14.2 °C 34405.1 hPa NW 26.9 km/h 26.9 km/h 65 % 0 mm 499.0 W/m2 CLR
10:40 -10.6 °C -14.2 °C 34405.1 hPa NW 11.9 km/h 12.7 km/h 65 % 0 mm 555.0 W/m2 CLR
10:45 -10.5 °C -14.1 °C 34405.1 hPa WNW 29.8 km/h 29.8 km/h 65 % 0 mm 652.0 W/m2 CLR
10:50 -10.4 °C -14.1 °C 34405.1 hPa WNW 23.8 km/h 23.8 km/h 64 % 0 mm 657.0 W/m2 CLR
10:55 -10.4 °C -13.9 °C 34395 hPa WNW 29.8 km/h 29.8 km/h 65 % 0 mm 529.0 W/m2 CLR
11:00 -10.3 °C -13.8 °C 34405.1 hPa NNW 32.8 km/h 32.8 km/h 65 % 0 mm 512.0 W/m2 CLR
11:05 -10.4 °C -14.2 °C 34405.1 hPa WNW 29.8 km/h 29.8 km/h 63 % 0 mm 459.0 W/m2 CLR
11:10 -10.4 °C -14.1 °C 34405.1 hPa NW 23.8 km/h 23.8 km/h 64 % 0 mm 483.0 W/m2 CLR
11:20 -10.2 °C -13.9 °C 34395 hPa WNW 17.9 km/h 17.9 km/h 64 % 0 mm 541.0 W/m2 CLR
11:25 -10.2 °C -13.8 °C 34395 hPa NNW 20.9 km/h 20.9 km/h 64 % 0 mm 501.0 W/m2 CLR
11:30 -10.1 °C -14 °C 34395 hPa West 23.8 km/h 23.8 km/h 63 % 0 mm 413.0 W/m2 CLR
11:35 -10.2 °C -14.2 °C 34395 hPa NW 11.9 km/h 11.9 km/h 62 % 0 mm 408.0 W/m2 CLR
11:40 -10.1 °C -13.8 °C 34395 hPa WNW 15 km/h 15 km/h 64 % 0 mm 471.0 W/m2 CLR
11:45 -10.1 °C -13.9 °C 34395 hPa NNW 38.8 km/h 38.8 km/h 63 % 0 mm 455.0 W/m2 CLR
11:50 -10.1 °C -13.9 °C 34395 hPa NNW 29.8 km/h 29.8 km/h 63 % 0 mm 550.0 W/m2 CLR
11:55 -10.1 °C -14 °C 34395 hPa NNW 32.8 km/h 32.8 km/h 62 % 0 mm 471.0 W/m2 CLR
12:00 -10.1 °C -14.1 °C 34395 hPa WNW 32.8 km/h 32.8 km/h 62 % 0 mm 367.0 W/m2 CLR
12:05 -10.1 °C -13.9 °C 34395 hPa NW 31.1 km/h 31.1 km/h 63 % 0 mm 606.0 W/m2 CLR
12:10 -9.9 °C -13.8 °C 34395 hPa NNW 29.8 km/h 29.8 km/h 63 % 0 mm 677.0 W/m2 CLR
12:15 -9.8 °C -13.8 °C 34395 hPa NW 12.9 km/h 12.9 km/h 62 % 0 mm 717.0 W/m2 CLR
12:20 -9.6 °C -13.7 °C 34384.8 hPa NW 35.7 km/h 35.7 km/h 61 % 0 mm 701.0 W/m2 CLR
12:25 -9.6 °C -13.7 °C 34395 hPa NW 29.8 km/h 29.8 km/h 61 % 0 mm 694.0 W/m2 CLR
12:30 -9.5 °C -13.7 °C 34384.8 hPa WNW 29.8 km/h 29.8 km/h 61 % 0 mm 705.0 W/m2 CLR
12:35 -9.4 °C -13.8 °C 34384.8 hPa NNW 25.9 km/h 25.9 km/h 59 % 0 mm 770.0 W/m2 CLR
12:40 -9.3 °C -13.7 °C 34384.8 hPa NNW 29.8 km/h 30.7 km/h 59 % 0 mm 701.0 W/m2 CLR
12:45 -9.3 °C -13.8 °C 34384.8 hPa NNW 32.8 km/h 32.8 km/h 59 % 0 mm 631.0 W/m2 CLR
12:50 -9.3 °C -13.8 °C 34371.3 hPa NNW 23.8 km/h 23.8 km/h 59 % 0 mm 606.0 W/m2 CLR
12:55 -9.4 °C -13.8 °C 34371.3 hPa NNW 9 km/h 9 km/h 59 % 0 mm 552.0 W/m2 CLR
13:00 -9.3 °C -13.9 °C 34371.3 hPa North 23.3 km/h 23.3 km/h 58 % 0 mm 803.0 W/m2 CLR
13:05 -9.3 °C -13.9 °C 34371.3 hPa WNW 26.9 km/h 26.9 km/h 58 % 0 mm 464.0 W/m2 CLR
13:10 -9.4 °C -13.9 °C 34371.3 hPa NW 20.8 km/h 20.8 km/h 58 % 0 mm 480.0 W/m2 CLR
13:15 -9.4 °C -14 °C 34371.3 hPa NW 23.8 km/h 23.8 km/h 58 % 0 mm 445.0 W/m2 CLR
13:20 -9.3 °C -13.7 °C 34371.3 hPa North 26.9 km/h 26.9 km/h 60 % 0 mm 684.0 W/m2 CLR
13:25 -9.3 °C -14 °C 34371.3 hPa North 38.8 km/h 38.8 km/h 57 % 0 mm 782.0 W/m2 CLR
13:30 -9.1 °C -13.6 °C 34371.3 hPa North 29.8 km/h 29.8 km/h 59 % 0 mm 803.0 W/m2 CLR
13:35 -9 °C -13.7 °C 34371.3 hPa NNW 36.2 km/h 36.2 km/h 57 % 0 mm 675.0 W/m2 CLR
13:40 -9.1 °C -13.7 °C 34361.1 hPa WNW 23.8 km/h 23.8 km/h 58 % 0 mm 738.0 W/m2 CLR
13:45 -9 °C -13.6 °C 34361.1 hPa NW 3.1 km/h 3.1 km/h 58 % 0 mm 729.0 W/m2 CLR
13:50 -8.8 °C -13.7 °C 34361.1 hPa NW 38.8 km/h 38.8 km/h 56 % 0 mm 754.0 W/m2 CLR
13:55 -8.8 °C -13.9 °C 34361.1 hPa NW 38.8 km/h 38.8 km/h 55 % 0 mm 687.0 W/m2 CLR
14:00 -8.9 °C -13.8 °C 34347.6 hPa West 29.8 km/h 29.8 km/h 56 % 0 mm 540.0 W/m2 CLR
14:05 -8.8 °C -13.5 °C 34347.6 hPa NNW 29.8 km/h 29.8 km/h 57 % 0 mm 666.0 W/m2 CLR
14:10 -8.7 °C -13.6 °C 34347.6 hPa NNW 29.8 km/h 29.8 km/h 56 % 0 mm 749.0 W/m2 CLR
14:15 -8.6 °C -13.8 °C 34347.6 hPa NW 32.8 km/h 32.8 km/h 54 % 0 mm 740.0 W/m2 CLR
14:20 -8.4 °C -13.7 °C 34347.6 hPa NNW 29.8 km/h 29.8 km/h 54 % 0 mm 642.0 W/m2 CLR
14:25 -8.5 °C -13.7 °C 34347.6 hPa NW 38.8 km/h 38.8 km/h 54 % 0 mm 673.0 W/m2 CLR
14:30 -8.5 °C -13.7 °C 34337.4 hPa North 26.9 km/h 26.9 km/h 54 % 0 mm 649.0 W/m2 CLR
14:35 -8.4 °C -13.4 °C 34337.4 hPa NW 9 km/h 9 km/h 55 % 0 mm 698.0 W/m2 CLR
14:40 -8.3 °C -13.7 °C 34337.4 hPa NNW 35.7 km/h 35.7 km/h 53 % 0 mm 717.0 W/m2 CLR
14:45 -8.3 °C -13.8 °C 34337.4 hPa NW 41.7 km/h 41.7 km/h 52 % 0 mm 601.0 W/m2 CLR
14:50 -8.4 °C -13.6 °C 34337.4 hPa NW 44.1 km/h 44.1 km/h 54 % 0 mm 635.0 W/m2 CLR
14:55 -8.3 °C -13.8 °C 34337.4 hPa NW 41.7 km/h 41.7 km/h 52 % 0 mm 636.0 W/m2 CLR
15:00 -8.4 °C -13.9 °C 34337.4 hPa North 38.8 km/h 38.8 km/h 52 % 0 mm 383.0 W/m2 CLR
15:05 -8.4 °C -13.7 °C 34337.4 hPa NNW 32.8 km/h 32.8 km/h 53 % 0 mm 547.0 W/m2 CLR
15:10 -8.2 °C -13.6 °C 34327.3 hPa WNW 29.8 km/h 29.8 km/h 53 % 0 mm 603.0 W/m2 CLR
15:15 -8.2 °C -13.8 °C 34327.3 hPa NNW 32.8 km/h 32.8 km/h 52 % 0 mm 410.0 W/m2 CLR
15:20 -8.5 °C -14 °C 34337.4 hPa NNW 46.7 km/h 46.7 km/h 52 % 0 mm 403.0 W/m2 CLR
15:25 -8.6 °C -13.7 °C 34337.4 hPa NNW 26.9 km/h 26.9 km/h 54 % 0 mm 408.0 W/m2 CLR
15:30 -8.6 °C -13.9 °C 34337.4 hPa NNW 41.7 km/h 41.7 km/h 53 % 0 mm 396.0 W/m2 CLR
15:35 -8.6 °C -13.9 °C 34327.3 hPa NW 35.7 km/h 35.7 km/h 53 % 0 mm 475.0 W/m2 CLR
15:36 -8.6 °C -13.8 °C 34327.3 hPa NNW 35.7 km/h 35.7 km/h 54 % 0 mm 475.0 W/m2 CLR
15:41 -8.4 °C -13.7 °C 34327.3 hPa North 9 km/h 9 km/h 54 % 0 mm 589.0 W/m2 CLR
15:46 -8.3 °C -13.7 °C 34327.3 hPa NNW 29.8 km/h 29.8 km/h 53 % 0 mm 503.0 W/m2 CLR
15:51 -8.4 °C -13.9 °C 34327.3 hPa North 23.8 km/h 23.8 km/h 52 % 0 mm 492.0 W/m2 CLR
15:56 -8.4 °C -13.9 °C 34327.3 hPa NNW 35.7 km/h 35.7 km/h 52 % 0 mm 475.0 W/m2 CLR
16:01 -8.2 °C -13.6 °C 34327.3 hPa NW 29.8 km/h 29.8 km/h 53 % 0 mm 494.0 W/m2 CLR
16:06 -8.3 °C -13.7 °C 34327.3 hPa NNW 38.8 km/h 38.8 km/h 53 % 0 mm 387.0 W/m2 CLR
16:11 -8.4 °C -13.8 °C 34327.3 hPa NW 20.9 km/h 20.9 km/h 53 % 0 mm 336.0 W/m2 CLR
16:16 -8.6 °C -13.7 °C 34327.3 hPa NW 29.8 km/h 29.8 km/h 54 % 0 mm 401.0 W/m2 CLR
16:21 -8.5 °C -13.7 °C 34327.3 hPa NNW 41.7 km/h 41.7 km/h 54 % 0 mm 441.0 W/m2 CLR
16:26 -8.6 °C -13.7 °C 34327.3 hPa NW 29.8 km/h 29.8 km/h 54 % 0 mm 315.0 W/m2 CLR
16:31 -8.6 °C -13.8 °C 34327.3 hPa NW 29.8 km/h 29.8 km/h 54 % 0 mm 255.0 W/m2 CLR
16:36 -8.7 °C -13.9 °C 34327.3 hPa Calm     54 % 0 mm 229.0 W/m2 CLR
16:41 -8.7 °C -13.9 °C 34327.3 hPa West 9 km/h 9 km/h 54 % 0 mm 241.0 W/m2 CLR
16:46 -8.6 °C -13.7 °C 34313.7 hPa WNW 29.8 km/h 29.8 km/h 54 % 0 mm 497.0 W/m2 CLR
16:51 -8.3 °C -13.7 °C 34313.7 hPa NNW 9 km/h 9 km/h 53 % 0 mm 441.0 W/m2 CLR
16:56 -8.2 °C -13.8 °C 34313.7 hPa North 29.8 km/h 29.8 km/h 52 % 0 mm 369.0 W/m2 CLR
17:01 -8.3 °C -13.7 °C 34313.7 hPa WNW 26.9 km/h 26.9 km/h 53 % 0 mm 411.0 W/m2 CLR
17:06 -8.3 °C -13.8 °C 34313.7 hPa NNW 35.7 km/h 35.7 km/h 52 % 0 mm 313.0 W/m2 CLR
17:11 -8.4 °C -13.6 °C 34313.7 hPa NW 29.8 km/h 29.8 km/h 54 % 0 mm 339.0 W/m2 CLR
17:16 -8.4 °C -13.9 °C 34313.7 hPa NW 41.7 km/h 41.7 km/h 52 % 0 mm 218.0 W/m2 CLR
17:21 -8.6 °C -13.9 °C 34313.7 hPa WNW 15 km/h 15 km/h 53 % 0 mm 190.0 W/m2 CLR
17:26 -8.6 °C -13.9 °C 34313.7 hPa NNW 35.7 km/h 35.7 km/h 53 % 0 mm 183.0 W/m2 CLR
17:31 -8.6 °C -13.7 °C 34313.7 hPa WNW 29.8 km/h 29.8 km/h 55 % 0 mm 329.0 W/m2 CLR
17:36 -8.5 °C -13.8 °C 34313.7 hPa NW 35.7 km/h 35.7 km/h 53 % 0 mm 336.0 W/m2 CLR
17:41 -8.5 °C -13.8 °C 34303.6 hPa NW 23.8 km/h 23.8 km/h 53 % 0 mm 301.0 W/m2 CLR
17:46 -8.4 °C -13.9 °C 34303.6 hPa North 29.8 km/h 29.8 km/h 52 % 0 mm 258.0 W/m2 CLR
17:51 -8.5 °C -14 °C 34303.6 hPa NNW 6 km/h 6 km/h 52 % 0 mm 232.0 W/m2 CLR
17:56 -8.4 °C -14 °C 34303.6 hPa NNW 26.9 km/h 26.9 km/h 52 % 0 mm 200.0 W/m2 CLR
18:01 -8.5 °C -14 °C 34303.6 hPa NNW 26.9 km/h 26.9 km/h 52 % 0 mm 98.0 W/m2 CLR
18:06 -8.7 °C -14 °C 34303.6 hPa NW 23.8 km/h 23.8 km/h 53 % 0 mm 42.0 W/m2 FEW
18:11 -8.8 °C -14 °C 34303.6 hPa North 20.9 km/h 20.9 km/h 54 % 0 mm 49.0 W/m2 SCT
18:16 -8.9 °C -13.9 °C 34303.6 hPa North 3.1 km/h 3.1 km/h 55 % 0 mm 123.0 W/m2 CLR
18:21 -8.8 °C -13.8 °C 34303.6 hPa Calm     55 % 0 mm 105.0 W/m2 CLR
18:26 -8.8 °C -13.8 °C 34313.7 hPa NNW 9 km/h 9 km/h 55 % 0 mm 109.0 W/m2 CLR
18:31 -8.7 °C -13.8 °C 34313.7 hPa Calm     55 % 0 mm 100.0 W/m2 CLR
18:36 -8.8 °C -13.8 °C 34313.7 hPa NNW 26.9 km/h 26.9 km/h 55 % 0 mm 97.0 W/m2 CLR
18:41 -8.9 °C -13.9 °C 34313.7 hPa NW 18.2 km/h 18.2 km/h 55 % 0 mm 77.0 W/m2 FEW
18:46 -9 °C -13.8 °C 34327.3 hPa Calm     56 % 0 mm 51.0 W/m2 SCT
18:51 -9.1 °C -13.8 °C 34337.4 hPa NW 9 km/h 9 km/h 57 % 0 mm 35.0 W/m2 BKN
18:56 -9.2 °C -13.8 °C 34337.4 hPa NW 5.1 km/h 5.1 km/h 58 % 0 mm 26.0 W/m2 BKN
18:58 -9.2 °C -13.8 °C 34337.4 hPa NW 9 km/h 9 km/h 58 % 0 mm 26.0 W/m2 BKN
19:03 -9.3 °C -13.7 °C 34337.4 hPa North 17.9 km/h 17.9 km/h 59 % 0 mm 21.0 W/m2 BKN
19:08 -9.4 °C -13.8 °C 34347.6 hPa North 29.8 km/h 29.8 km/h 59 % 0 mm 11.0 W/m2 BKN
19:13 -9.5 °C -13.8 °C 34347.6 hPa North 20.9 km/h 20.9 km/h 60 % 0 mm 5.0 W/m2 OVC
19:18 -9.6 °C -13.8 °C 34361.1 hPa NNW 26.9 km/h 26.9 km/h 60 % 0 mm 0.0 W/m2 OVC
19:23 -9.6 °C -13.8 °C 34361.1 hPa NW 29.8 km/h 29.8 km/h 61 % 0 mm 0.0 W/m2 CLR
19:28 -9.6 °C -13.8 °C 34371.3 hPa NNW 26.9 km/h 26.9 km/h 61 % 0 mm 0.0 W/m2 CLR
19:33 -9.7 °C -13.9 °C 34371.3 hPa NNW 26.9 km/h 26.9 km/h 60 % 0 mm 0.0 W/m2 CLR
19:38 -9.7 °C -13.9 °C 34371.3 hPa NNW 17.9 km/h 17.9 km/h 60 % 0 mm 0.0 W/m2 CLR
19:43 -9.8 °C -14.2 °C 34371.3 hPa NNW 20.9 km/h 20.9 km/h 59 % 0 mm 0.0 W/m2 CLR
19:48 -9.8 °C -14.1 °C 34371.3 hPa NW 23.8 km/h 23.8 km/h 60 % 0 mm 0.0 W/m2 CLR
19:53 -9.8 °C -14.1 °C 34371.3 hPa NW 29.8 km/h 29.8 km/h 60 % 0 mm 0.0 W/m2 CLR
19:58 -9.9 °C -14.1 °C 34371.3 hPa NNW 17.9 km/h 17.9 km/h 60 % 0 mm 0.0 W/m2 CLR
20:03 -9.9 °C -14.1 °C 34384.8 hPa WNW 23.8 km/h 23.8 km/h 61 % 0 mm 0.0 W/m2 CLR
20:08 -9.9 °C -13.9 °C 34384.8 hPa NW 20.8 km/h 20.8 km/h 62 % 0 mm 0.0 W/m2 CLR
20:13 -10 °C -14 °C 34384.8 hPa WNW 23.8 km/h 23.8 km/h 62 % 0 mm 0.0 W/m2 CLR
20:18 -10.1 °C -14.1 °C 34384.8 hPa Calm     62 % 0 mm 0.0 W/m2 CLR
20:23 -10.1 °C -14 °C 34395 hPa NNW 35.7 km/h 35.7 km/h 63 % 0 mm 0.0 W/m2 CLR
20:28 -10.2 °C -14.1 °C 34384.8 hPa West 23.8 km/h 23.8 km/h 63 % 0 mm 0.0 W/m2 CLR
20:33 -10.2 °C -14.1 °C 34395 hPa NW 23.3 km/h 23.3 km/h 63 % 0 mm 0.0 W/m2 CLR
20:38 -10.3 °C -14.1 °C 34395 hPa WNW 33.6 km/h 33.6 km/h 63 % 0 mm 0.0 W/m2 CLR
20:43 -10.3 °C -14.2 °C 34395 hPa West 29.8 km/h 29.8 km/h 63 % 0 mm 0.0 W/m2 CLR
20:48 -10.3 °C -14.3 °C 34395 hPa West 29.8 km/h 29.8 km/h 62 % 0 mm 0.0 W/m2 CLR
20:53 -10.4 °C -14.3 °C 34395 hPa WNW 33.6 km/h 33.6 km/h 62 % 0 mm 0.0 W/m2 CLR
20:58 -10.4 °C -14.4 °C 34395 hPa WNW 29.8 km/h 29.8 km/h 62 % 0 mm 0.0 W/m2 CLR
21:03 -10.5 °C -14.3 °C 34395 hPa WNW 23.8 km/h 23.8 km/h 63 % 0 mm 0.0 W/m2 CLR
21:08 -10.6 °C -14.5 °C 34395 hPa WNW 32.8 km/h 32.8 km/h 62 % 0 mm 0.0 W/m2 CLR
21:13 -10.5 °C -14.5 °C 34395 hPa West 23.8 km/h 23.8 km/h 62 % 0 mm 0.0 W/m2 CLR
21:18 -10.6 °C -14.4 °C 34395 hPa West 23.8 km/h 23.8 km/h 63 % 0 mm 0.0 W/m2 CLR
21:23 -10.7 °C -14.5 °C 34395 hPa WSW 26.9 km/h 26.9 km/h 63 % 0 mm 0.0 W/m2 CLR
21:33 -10.7 °C -14.4 °C 34395 hPa West 15 km/h 15 km/h 64 % 0 mm 0.0 W/m2 CLR
21:38 -10.8 °C -14.5 °C 34395 hPa Calm     64 % 0 mm 0.0 W/m2 CLR
21:43 -10.9 °C -14.4 °C 34405.1 hPa West 17.9 km/h 17.9 km/h 65 % 0 mm 0.0 W/m2 CLR
21:48 -10.9 °C -14.5 °C 34405.1 hPa West 9 km/h 9 km/h 65 % 0 mm 0.0 W/m2 CLR
21:53 -11 °C -14.4 °C 34405.1 hPa West 29.8 km/h 29.8 km/h 66 % 0 mm 0.0 W/m2 CLR
21:58 -11.1 °C -14.5 °C 34405.1 hPa WNW 29.8 km/h 29.8 km/h 66 % 0 mm 0.0 W/m2 CLR
22:03 -11.1 °C -14.5 °C 34418.7 hPa WNW 29.8 km/h 29.8 km/h 66 % 0 mm 0.0 W/m2 CLR
22:08 -11.1 °C -14.5 °C 34418.7 hPa West 25.9 km/h 25.9 km/h 66 % 0 mm 0.0 W/m2 CLR
22:13 -11.1 °C -14.6 °C 34418.7 hPa West 28.5 km/h 28.5 km/h 66 % 0 mm 0.0 W/m2 CLR
22:18 -11.1 °C -14.6 °C 34418.7 hPa West 23.8 km/h 23.8 km/h 66 % 0 mm 0.0 W/m2 CLR
22:23 -11.1 °C -14.6 °C 34418.7 hPa West 32.8 km/h 32.8 km/h 66 % 0 mm 0.0 W/m2 CLR
22:28 -11.2 °C -14.6 °C 34418.7 hPa WNW 26.9 km/h 26.9 km/h 66 % 0 mm 0.0 W/m2 CLR
22:38 -11.2 °C -14.7 °C 34428.8 hPa WNW 9 km/h 9 km/h 65 % 0 mm 0.0 W/m2 CLR
22:43 -11.2 °C -14.8 °C 34428.8 hPa West 9 km/h 9 km/h 65 % 0 mm 0.0 W/m2 CLR
22:48 -11.3 °C -14.7 °C 34428.8 hPa WNW 23.8 km/h 23.8 km/h 66 % 0 mm 0.0 W/m2 CLR
22:53 -11.3 °C -14.8 °C 34428.8 hPa WNW 28.5 km/h 28.5 km/h 66 % 0 mm 0.0 W/m2 CLR
22:58 -11.3 °C -14.8 °C 34428.8 hPa WNW 38.8 km/h 38.8 km/h 66 % 0 mm 0.0 W/m2 CLR
23:03 -11.4 °C -14.8 °C 34428.8 hPa West 26.9 km/h 26.9 km/h 66 % 0 mm 0.0 W/m2 CLR
23:08 -11.4 °C -14.8 °C 34428.8 hPa WNW 26.9 km/h 26.9 km/h 66 % 0 mm 0.0 W/m2 CLR
23:13 -11.5 °C -14.9 °C 34428.8 hPa WNW 23.8 km/h 23.8 km/h 66 % 0 mm 0.0 W/m2 CLR
23:18 -11.5 °C -14.8 °C 34428.8 hPa WSW 26.9 km/h 26.9 km/h 67 % 0 mm 0.0 W/m2 CLR
23:23 -11.6 °C -14.8 °C 34428.8 hPa West 29.8 km/h 29.8 km/h 67 % 0 mm 0.0 W/m2 CLR
23:28 -11.6 °C -14.8 °C 34428.8 hPa WNW 32.8 km/h 32.8 km/h 67 % 0 mm 0.0 W/m2 CLR
23:33 -11.6 °C -14.8 °C 34428.8 hPa WNW 35.7 km/h 35.7 km/h 67 % 0 mm 0.0 W/m2 CLR
23:38 -11.6 °C -14.9 °C 34428.8 hPa West 20.9 km/h 20.9 km/h 67 % 0 mm 0.0 W/m2 CLR
23:43 -11.6 °C -14.9 °C 34428.8 hPa West 29.8 km/h 29.8 km/h 67 % 0 mm 0.0 W/m2 CLR
23:48 -11.6 °C -15.1 °C 34428.8 hPa West 38.8 km/h 38.8 km/h 66 % 0 mm 0.0 W/m2 CLR
23:53 -11.6 °C -15.1 °C 34428.8 hPa WSW 29.8 km/h 29.8 km/h 66 % 0 mm 0.0 W/m2 CLR
23:58 -11.7 °C -15.1 °C 34428.8 hPa West 29.8 km/h 29.8 km/h 66 % 0 mm 0.0 W/m2 CLR
Lo Temps de Massalio
Compliments of Weather Underground - 1.25 mb